Time;durP1;ratioP1;P1;durP2;ratioP2;P2;SDS_P1;SDS_P2;PMS_P1;PMS_P2;Temp;Humidity;BMP_temperature;BMP_pressure;BME280_temperature;BME280_humidity;BME280_pressure;Samples;Min_cycle;Max_cycle;Signal;HPM_P1;HPM_P2
2022/05/03 00:01:27;;;;;;;3.53;1.10;;;11.00;60.70;;;;;;5077309;28;20484;-83
2022/05/03 00:03:59;;;;;;;1.83;0.87;;;10.90;60.80;;;;;;5095625;28;20020;-84
2022/05/03 00:06:43;;;;;;;2.53;0.93;;;10.90;61.20;;;;;;5078233;28;20080;-83
2022/05/03 00:09:15;;;;;;;2.88;0.90;;;10.80;61.20;;;;;;5095690;28;20038;-83
2022/05/03 00:11:55;;;;;;;3.30;0.93;;;10.70;61.40;;;;;;5095967;28;20535;-84
2022/05/03 00:14:30;;;;;;;2.47;0.90;;;10.70;61.70;;;;;;5096640;28;20024;-84
2022/05/03 00:16:58;;;;;;;3.80;1.20;;;10.60;61.80;;;;;;5096319;28;20092;-83
2022/05/03 00:19:23;;;;;;;3.03;0.97;;;10.50;62.00;;;;;;5077370;28;20056;-84
2022/05/03 00:21:50;;;;;;;4.53;1.33;;;10.50;62.20;;;;;;5076847;28;20067;-84
2022/05/03 00:24:17;;;;;;;3.10;0.97;;;10.40;62.50;;;;;;5060131;28;20035;-84
2022/05/03 00:26:43;;;;;;;2.30;1.00;;;10.30;62.80;;;;;;5076692;28;20044;-84
2022/05/03 00:29:10;;;;;;;2.17;1.10;;;10.30;62.90;;;;;;5076789;28;20154;-83
2022/05/03 00:31:36;;;;;;;2.67;1.00;;;10.30;63.30;;;;;;5094896;28;20384;-84
2022/05/03 00:34:05;;;;;;;5.97;1.33;;;10.20;63.50;;;;;;5094766;28;20030;-83
2022/05/03 00:36:31;;;;;;;3.50;1.40;;;10.20;63.60;;;;;;5076931;28;20028;-84
2022/05/03 00:38:57;;;;;;;4.03;1.37;;;10.20;63.90;;;;;;5093941;28;20047;-84
2022/05/03 00:41:23;;;;;;;3.30;1.30;;;10.10;64.00;;;;;;5060000;28;20023;-83
2022/05/03 00:44:02;;;;;;;3.00;1.47;;;10.10;64.20;;;;;;5094761;28;20519;-82
2022/05/03 00:46:31;;;;;;;5.00;1.70;;;10.10;64.80;;;;;;5094532;28;20476;-84
2022/05/03 00:49:25;;;;;;;3.10;1.10;;;10.10;64.60;;;;;;5094515;28;20032;-84
2022/05/03 00:52:03;;;;;;;2.45;1.05;;;10.00;64.50;;;;;;5076269;28;20024;-83
2022/05/03 00:55:03;;;;;;;2.80;1.10;;;10.00;64.50;;;;;;5094389;28;20038;-84
2022/05/03 00:57:47;;;;;;;2.37;0.97;;;10.00;64.60;;;;;;5094447;28;20474;-83
2022/05/03 01:00:20;;;;;;;3.07;1.10;;;9.90;64.70;;;;;;5071294;27;1758418;-84
2022/05/03 01:03:00;;;;;;;3.47;1.40;;;9.90;64.90;;;;;;5093385;28;20472;-83
2022/05/03 01:05:28;;;;;;;2.77;1.20;;;9.80;65.00;;;;;;5093047;28;20028;-83
2022/05/03 01:08:09;;;;;;;2.57;1.00;;;9.80;65.10;;;;;;5111254;28;20032;-83
2022/05/03 01:11:10;;;;;;;3.37;1.43;;;9.80;65.40;;;;;;5111350;28;20085;-83
2022/05/03 01:14:16;;;;;;;4.27;1.10;;;9.70;65.90;;;;;;5111181;28;20070;-83
2022/05/03 01:16:45;;;;;;;3.50;1.20;;;9.70;65.60;;;;;;5106562;28;20044;-83
2022/05/03 01:19:34;;;;;;;4.50;1.43;;;9.60;65.80;;;;;;5090581;28;20032;-83
2022/05/03 01:22:08;;;;;;;4.47;1.80;;;9.60;65.80;;;;;;5090598;28;20488;-83
2022/05/03 01:25:11;;;;;;;5.00;1.50;;;9.60;66.10;;;;;;5090568;28;20158;-83
2022/05/03 01:28:05;;;;;;;3.50;1.40;;;9.50;66.20;;;;;;5072337;28;20027;-82
2022/05/03 01:30:31;;;;;;;7.53;1.60;;;9.50;66.40;;;;;;5072206;28;20024;-83
2022/05/03 01:33:08;;;;;;;5.27;1.57;;;9.40;66.30;;;;;;5055934;28;20036;-83
2022/05/03 01:35:40;;;;;;;4.63;1.87;;;9.40;66.80;;;;;;5072188;28;20024;-83
2022/05/03 01:38:17;;;;;;;4.23;1.50;;;9.40;67.20;;;;;;5090280;28;20112;-82
2022/05/03 01:40:51;;;;;;;4.50;1.83;;;9.30;67.40;;;;;;5090298;28;20033;-83
2022/05/03 01:43:55;;;;;;;3.88;1.70;;;9.40;67.30;;;;;;5072108;28;20043;-83
2022/05/03 01:46:29;;;;;;;4.65;2.15;;;9.40;67.80;;;;;;5090119;28;20112;-82
2022/05/03 01:52:19;;;;;;;4.43;1.87;;;9.30;67.80;;;;;;5090747;28;20054;-83
2022/05/03 01:54:54;;;;;;;3.80;1.80;;;9.30;67.90;;;;;;5071940;28;20039;-83
2022/05/03 01:57:46;;;;;;;5.37;1.97;;;9.20;67.80;;;;;;5089927;28;20066;-82
2022/05/03 02:00:12;;;;;;;4.13;2.03;;;9.20;68.10;;;;;;5071510;28;20048;-83
2022/05/03 02:03:02;;;;;;;4.03;1.53;;;9.20;68.20;;;;;;5055221;28;20480;-83
2022/05/03 02:05:54;;;;;;;4.20;2.13;;;9.20;68.40;;;;;;5089841;28;20381;-83
2022/05/03 02:08:24;;;;;;;4.03;1.77;;;9.20;68.40;;;;;;5089774;28;20024;-83
2022/05/03 02:11:11;;;;;;;3.33;1.70;;;9.20;68.40;;;;;;5080958;28;20033;-83
2022/05/03 02:17:25;;;;;;;5.07;2.27;;;9.10;68.70;;;;;;5076520;28;20039;-85
2022/05/03 02:20:18;;;;;;;4.83;2.20;;;9.10;69.10;;;;;;5075936;28;20044;-82
2022/05/03 02:22:59;;;;;;;6.30;2.47;;;9.00;69.10;;;;;;5058018;28;20047;-83
2022/05/03 02:25:42;;;;;;;6.30;1.90;;;9.00;69.30;;;;;;5076176;28;20047;-83
2022/05/03 02:28:44;;;;;;;4.77;2.60;;;8.90;69.30;;;;;;5075793;28;20031;-83
2022/05/03 02:31:17;;;;;;;6.00;2.43;;;8.90;69.70;;;;;;5057843;28;20432;-82
2022/05/03 02:34:00;;;;;;;5.20;2.07;;;8.90;69.60;;;;;;5076157;28;20043;-83
2022/05/03 02:36:27;;;;;;;4.50;2.27;;;8.80;69.90;;;;;;5075816;28;20025;-82
2022/05/03 02:39:03;;;;;;;5.67;2.53;;;8.80;69.90;;;;;;5075514;28;20028;-82
2022/05/03 02:41:50;;;;;;;4.57;2.00;;;8.80;70.40;;;;;;5075950;28;20028;-83
2022/05/03 02:44:19;;;;;;;8.13;2.63;;;8.80;70.80;;;;;;5057458;28;20097;-82
2022/05/03 02:46:51;;;;;;;6.13;2.63;;;8.80;70.90;;;;;;5058438;28;20024;-81
2022/05/03 02:49:44;;;;;;;6.57;2.73;;;8.80;71.30;;;;;;5075361;28;20040;-84
2022/05/03 02:52:22;;;;;;;6.57;2.67;;;8.80;71.70;;;;;;5075455;28;20025;-82
2022/05/03 02:54:48;;;;;;;5.10;2.43;;;8.80;71.50;;;;;;5057276;28;20393;-84
2022/05/03 02:57:19;;;;;;;7.07;3.07;;;8.70;71.40;;;;;;5057360;28;20025;-83
2022/05/03 03:03:19;;;;;;;4.43;2.20;;;8.80;71.50;;;;;;5060420;28;20079;-83
2022/05/03 03:05:53;;;;;;;6.27;3.07;;;8.80;71.60;;;;;;5057275;28;20381;-83
2022/05/03 03:08:21;;;;;;;6.05;3.00;;;8.70;71.70;;;;;;5056984;28;20056;-83
2022/05/03 03:10:57;;;;;;;7.83;3.30;;;8.70;71.70;;;;;;5074993;28;20036;-83
2022/05/03 03:13:49;;;;;;;6.00;3.20;;;8.70;72.00;;;;;;5075213;28;20040;-83
2022/05/03 03:16:31;;;;;;;8.57;3.13;;;8.70;72.20;;;;;;5074905;28;20040;-83
2022/05/03 03:19:42;;;;;;;5.93;2.93;;;8.70;72.20;;;;;;5056776;28;20511;-83
2022/05/03 03:22:12;;;;;;;7.20;3.20;;;8.60;72.50;;;;;;5031019;28;20431;-84
2022/05/03 03:24:42;;;;;;;9.37;2.93;;;8.60;72.40;;;;;;5075131;28;20100;-84
2022/05/03 03:27:11;;;;;;;5.37;2.63;;;8.70;72.60;;;;;;5074825;28;20472;-84
2022/05/03 03:29:41;;;;;;;7.03;2.77;;;8.70;72.60;;;;;;5056754;28;20038;-83
2022/05/03 03:32:08;;;;;;;6.73;2.57;;;8.70;72.80;;;;;;5056924;28;20035;-83
2022/05/03 03:34:36;;;;;;;8.27;3.00;;;8.60;72.90;;;;;;5056612;28;20036;-83
2022/05/03 03:37:07;;;;;;;7.47;3.37;;;8.60;73.00;;;;;;5074481;28;20037;-83
2022/05/03 03:39:34;;;;;;;6.90;3.03;;;8.60;73.20;;;;;;5056572;28;20434;-84
2022/05/03 03:42:05;;;;;;;8.47;2.97;;;8.50;73.30;;;;;;5074565;28;20033;-83
2022/05/03 03:44:31;;;;;;;6.57;3.60;;;8.50;73.50;;;;;;5074431;28;20081;-83
2022/05/03 03:46:58;;;;;;;5.97;3.43;;;8.50;73.70;;;;;;5056557;28;20111;-84
2022/05/03 03:49:24;;;;;;;6.17;3.00;;;8.50;73.70;;;;;;5074589;28;20028;-83
2022/05/03 03:51:50;;;;;;;7.03;3.30;;;8.40;73.80;;;;;;5039755;28;20063;-83
2022/05/03 03:54:17;;;;;;;6.37;3.20;;;8.40;73.90;;;;;;5055445;28;20526;-84
2022/05/03 03:56:44;;;;;;;8.70;3.80;;;8.30;74.00;;;;;;5073245;28;20029;-83
2022/05/03 03:59:12;;;;;;;6.30;3.00;;;8.30;74.10;;;;;;5072508;28;20143;-85
2022/05/03 04:01:38;;;;;;;6.17;3.07;;;8.30;74.20;;;;;;5073438;28;20112;-85
2022/05/03 04:04:04;;;;;;;6.40;3.70;;;8.40;74.50;;;;;;5039495;28;20028;-85
2022/05/03 04:06:30;;;;;;;6.93;3.73;;;8.20;74.40;;;;;;5055949;28;20431;-81
2022/05/03 04:08:55;;;;;;;7.03;3.37;;;8.30;74.70;;;;;;5073990;28;20078;-82
2022/05/03 04:11:21;;;;;;;8.27;3.97;;;8.20;74.70;;;;;;5022908;28;20111;-85
2022/05/03 04:13:47;;;;;;;7.50;3.57;;;8.20;74.80;;;;;;5056098;28;20037;-85
2022/05/03 04:16:12;;;;;;;7.27;3.57;;;8.10;75.10;;;;;;5055957;28;20366;-85
2022/05/03 04:18:46;;;;;;;10.73;4.27;;;8.10;75.10;;;;;;5039617;28;20028;-85
2022/05/03 04:21:17;;;;;;;8.40;3.67;;;8.10;75.20;;;;;;5040243;28;20036;-85
2022/05/03 04:23:44;;;;;;;7.33;3.53;;;8.10;75.40;;;;;;5073710;28;20027;-85
2022/05/03 04:26:11;;;;;;;7.67;3.50;;;8.10;75.50;;;;;;5055749;28;20484;-84
2022/05/03 04:28:37;;;;;;;7.40;2.93;;;8.00;75.40;;;;;;5055596;28;20028;-85
2022/05/03 04:31:03;;;;;;;8.93;3.60;;;8.10;75.60;;;;;;5055921;28;20029;-84
2022/05/03 04:33:29;;;;;;;6.27;3.40;;;8.00;75.70;;;;;;5055587;28;20481;-84
2022/05/03 04:35:54;;;;;;;6.87;3.10;;;8.00;75.70;;;;;;5055622;28;20033;-84
2022/05/03 04:38:20;;;;;;;7.47;3.43;;;8.00;75.70;;;;;;5055497;28;20029;-84
2022/05/03 04:40:45;;;;;;;6.20;3.40;;;8.00;75.90;;;;;;5022420;28;20025;-85
2022/05/03 04:43:11;;;;;;;8.07;3.50;;;8.00;76.00;;;;;;5038843;28;20029;-84
2022/05/03 04:45:37;;;;;;;7.13;3.47;;;8.10;76.00;;;;;;5039149;28;20024;-86
2022/05/03 04:48:03;;;;;;;6.80;3.07;;;8.10;76.10;;;;;;5038798;28;20075;-84
2022/05/03 04:50:29;;;;;;;6.37;3.10;;;8.00;76.10;;;;;;5073408;28;20024;-83
2022/05/03 04:52:56;;;;;;;7.00;3.57;;;7.90;76.20;;;;;;5038802;28;20036;-83
2022/05/03 04:55:23;;;;;;;5.87;2.87;;;7.90;76.40;;;;;;5038907;28;20115;-83
2022/05/03 04:57:49;;;;;;;9.10;3.73;;;7.90;76.50;;;;;;5074122;28;20082;-82
2022/05/03 05:00:15;;;;;;;7.07;3.33;;;7.90;76.70;;;;;;5073848;28;20078;-84
2022/05/03 05:02:41;;;;;;;5.73;2.90;;;7.90;76.70;;;;;;5038743;28;20029;-85
2022/05/03 05:05:07;;;;;;;9.50;3.33;;;7.90;76.90;;;;;;5055511;28;20044;-85
2022/05/03 05:07:33;;;;;;;9.50;3.87;;;7.90;77.10;;;;;;5055292;28;20032;-83
2022/05/03 05:12:42;;;;;;;6.25;3.63;;;8.00;77.60;;;;;;5057934;28;20040;-82
2022/05/03 05:15:08;;;;;;;7.40;3.73;;;8.10;77.40;;;;;;5022190;28;20024;-83
2022/05/03 05:17:34;;;;;;;7.57;3.63;;;8.10;77.30;;;;;;5038574;28;20029;-83
2022/05/03 05:19:59;;;;;;;8.47;3.50;;;8.10;77.20;;;;;;5037912;28;20029;-83
2022/05/03 05:22:25;;;;;;;7.27;3.30;;;8.20;77.20;;;;;;5053173;28;20113;-82
2022/05/03 05:24:51;;;;;;;8.77;3.33;;;8.20;77.00;;;;;;5072781;28;20021;-82
2022/05/03 05:27:17;;;;;;;8.63;3.80;;;8.30;77.00;;;;;;5055021;28;20025;-83
2022/05/03 05:29:42;;;;;;;9.43;3.80;;;8.30;77.10;;;;;;5054907;28;20396;-83
2022/05/03 05:32:08;;;;;;;9.07;4.27;;;8.30;77.10;;;;;;5064402;28;20039;-82
2022/05/03 05:34:34;;;;;;;6.73;3.37;;;8.40;77.10;;;;;;5055999;28;20085;-83
2022/05/03 05:37:00;;;;;;;11.20;4.27;;;8.40;77.20;;;;;;5073013;28;20123;-80
2022/05/03 05:39:26;;;;;;;9.43;3.73;;;8.40;77.10;;;;;;5072739;28;20040;-82
2022/05/03 05:41:56;;;;;;;7.90;3.90;;;8.50;77.10;;;;;;5055165;28;20033;-83
2022/05/03 05:44:22;;;;;;;10.43;4.13;;;8.50;77.10;;;;;;5042337;28;20385;-83
2022/05/03 05:46:48;;;;;;;10.37;3.70;;;8.60;77.30;;;;;;5054272;28;20133;-83
2022/05/03 05:49:14;;;;;;;6.97;3.60;;;8.70;77.50;;;;;;5058729;28;20040;-82
2022/05/03 05:51:40;;;;;;;10.53;4.13;;;8.70;77.50;;;;;;5073541;28;20385;-80
2022/05/03 05:54:05;;;;;;;8.47;4.00;;;8.70;77.30;;;;;;5064081;28;20029;-79
2022/05/03 05:56:31;;;;;;;10.33;3.77;;;8.70;77.40;;;;;;5042878;28;20037;-83
2022/05/03 05:58:57;;;;;;;7.50;3.53;;;8.90;77.40;;;;;;5038413;28;20137;-83
2022/05/03 06:01:26;;;;;;;7.33;3.17;;;8.90;77.30;;;;;;5079550;28;20043;-83
2022/05/03 06:03:52;;;;;;;8.47;3.37;;;9.00;77.30;;;;;;5087380;28;20035;-83
2022/05/03 06:06:18;;;;;;;6.63;3.27;;;9.00;77.10;;;;;;5057894;28;20039;-85
2022/05/03 06:08:44;;;;;;;5.93;2.90;;;9.10;77.20;;;;;;5041667;28;20032;-84
2022/05/03 06:11:10;;;;;;;5.30;2.20;;;9.10;77.20;;;;;;5041233;28;20028;-84
2022/05/03 06:13:40;;;;;;;5.97;3.00;;;9.10;77.30;;;;;;5076109;28;20039;-84
2022/05/03 06:16:11;;;;;;;8.10;3.27;;;9.20;77.30;;;;;;5041850;28;20036;-83
2022/05/03 06:18:37;;;;;;;8.63;2.63;;;9.20;77.30;;;;;;5075936;28;20043;-84
2022/05/03 06:21:05;;;;;;;7.00;3.07;;;9.30;77.20;;;;;;5041536;28;20036;-84
2022/05/03 06:23:31;;;;;;;5.90;2.70;;;9.40;77.10;;;;;;5039510;28;20036;-84
2022/05/03 06:25:58;;;;;;;3.73;1.80;;;9.40;76.80;;;;;;5021574;28;20029;-79
2022/05/03 06:28:24;;;;;;;3.57;1.67;;;9.70;76.80;;;;;;5056116;28;20025;-80
2022/05/03 06:30:49;;;;;;;5.50;2.00;;;9.60;76.40;;;;;;5038066;28;20029;-80
2022/05/03 06:33:15;;;;;;;5.03;1.40;;;9.70;76.00;;;;;;5038081;28;20111;-79
2022/05/03 06:35:41;;;;;;;5.70;1.43;;;9.80;75.50;;;;;;5055580;28;20389;-80
2022/05/03 06:38:07;;;;;;;5.00;1.40;;;9.80;75.00;;;;;;5055545;28;20029;-80
2022/05/03 06:40:32;;;;;;;4.10;1.37;;;9.90;74.50;;;;;;5037809;28;20366;-80
2022/05/03 06:42:58;;;;;;;2.90;1.30;;;10.00;74.00;;;;;;5037740;28;20040;-80
2022/05/03 06:45:24;;;;;;;3.37;1.10;;;10.10;73.60;;;;;;5037338;28;20532;-80
2022/05/03 06:47:50;;;;;;;3.27;0.83;;;10.20;73.00;;;;;;5055477;28;20029;-80
2022/05/03 06:50:16;;;;;;;2.87;0.83;;;10.20;72.20;;;;;;5055417;28;20037;-79
2022/05/03 06:52:42;;;;;;;1.33;0.57;;;10.30;71.50;;;;;;5037546;28;20120;-80
2022/05/03 06:55:08;;;;;;;1.50;0.60;;;10.50;70.90;;;;;;5055915;28;20033;-80
2022/05/03 06:57:35;;;;;;;2.43;0.70;;;10.50;70.30;;;;;;5055256;28;20104;-80
2022/05/03 07:00:04;;;;;;;1.25;0.52;;;10.50;69.60;;;;;;5037391;28;20490;-80
2022/05/03 07:02:32;;;;;;;2.13;0.90;;;10.60;69.10;;;;;;5037351;28;20025;-79
2022/05/03 07:05:01;;;;;;;4.67;1.00;;;10.70;68.60;;;;;;5055561;28;20024;-78
2022/05/03 07:07:27;;;;;;;4.30;1.38;;;10.70;68.70;;;;;;5037411;28;20029;-79
2022/05/03 07:09:53;;;;;;;8.40;1.87;;;10.90;67.70;;;;;;5055340;28;20036;-79
2022/05/03 07:12:19;;;;;;;3.40;1.60;;;11.00;67.50;;;;;;5055020;28;20033;-79
2022/05/03 07:14:44;;;;;;;4.93;1.90;;;11.00;68.10;;;;;;5037379;28;20083;-79
2022/05/03 07:22:45;;;;;;;5.03;1.55;;;11.10;67.50;;;;;;5020643;28;20036;-79
2022/05/03 07:22:45;;;;;;;4.70;1.73;;;11.30;67.50;;;;;;5056131;28;20040;-79
2022/05/03 07:25:11;;;;;;;6.75;1.85;;;11.30;67.50;;;;;;5036899;28;20366;-80
2022/05/03 07:27:37;;;;;;;6.03;1.75;;;11.40;67.50;;;;;;5054734;28;20023;-80
2022/05/03 07:30:03;;;;;;;5.40;1.95;;;11.40;67.40;;;;;;5037006;28;20029;-79
2022/05/03 07:32:28;;;;;;;4.30;1.95;;;11.60;67.50;;;;;;5020407;28;20037;-79
2022/05/03 07:34:54;;;;;;;5.75;2.03;;;11.60;67.30;;;;;;5036735;28;20503;-80
2022/05/03 07:37:19;;;;;;;3.05;1.38;;;11.80;67.30;;;;;;5020081;28;20033;-79
2022/05/03 07:39:45;;;;;;;5.28;2.10;;;11.80;67.10;;;;;;5036352;28;20028;-79
2022/05/03 07:42:11;;;;;;;3.17;1.50;;;11.80;67.10;;;;;;5036583;28;20063;-79
2022/05/03 07:44:36;;;;;;;4.90;1.58;;;11.90;66.90;;;;;;5020156;28;20473;-80
2022/05/03 07:47:02;;;;;;;5.82;1.80;;;11.90;66.80;;;;;;5054193;28;20109;-80
2022/05/03 07:49:28;;;;;;;4.47;1.52;;;12.00;66.60;;;;;;5054247;28;20032;-80
2022/05/03 07:51:54;;;;;;;2.97;1.45;;;12.10;66.50;;;;;;5054288;28;20032;-80
2022/05/03 07:54:19;;;;;;;3.28;1.38;;;12.10;66.30;;;;;;5036167;28;20367;-80
2022/05/03 07:56:46;;;;;;;3.55;1.52;;;12.20;66.20;;;;;;5054166;28;20387;-80
2022/05/03 07:59:12;;;;;;;5.40;2.03;;;12.30;66.10;;;;;;5032641;28;20172;-80
2022/05/03 08:01:40;;;;;;;5.47;2.03;;;12.30;66.00;;;;;;5034019;28;20163;-80
2022/05/03 08:04:06;;;;;;;3.70;2.13;;;12.40;66.10;;;;;;5032942;28;20025;-79
2022/05/03 08:06:32;;;;;;;3.75;1.55;;;12.50;65.90;;;;;;5032944;28;20037;-80
2022/05/03 08:08:58;;;;;;;4.38;1.73;;;12.60;65.80;;;;;;5032325;28;20406;-80
2022/05/03 08:11:24;;;;;;;4.32;1.90;;;12.60;65.60;;;;;;5032883;28;20025;-80
2022/05/03 08:13:52;;;;;;;6.10;2.30;;;12.70;65.40;;;;;;5032754;28;20025;-79
2022/05/03 08:16:22;;;;;;;4.90;1.80;;;12.80;65.20;;;;;;5033982;28;20478;-80
2022/05/03 08:18:48;;;;;;;4.50;1.67;;;12.90;65.00;;;;;;5032567;28;20034;-80
2022/05/03 08:21:15;;;;;;;4.05;2.00;;;12.90;64.80;;;;;;5032571;28;20041;-80
2022/05/03 08:23:41;;;;;;;4.97;2.38;;;13.00;64.70;;;;;;5033847;28;20057;-80
2022/05/03 08:26:07;;;;;;;4.93;1.92;;;13.00;64.60;;;;;;5033756;28;20061;-80
2022/05/03 08:28:33;;;;;;;5.18;2.30;;;13.10;65.10;;;;;;5032496;28;20018;-80
2022/05/03 08:30:59;;;;;;;4.85;2.08;;;13.10;64.30;;;;;;5032426;28;20485;-80
2022/05/03 08:33:26;;;;;;;6.68;2.42;;;13.20;64.40;;;;;;5032532;28;20022;-80
2022/05/03 08:35:52;;;;;;;3.58;1.98;;;13.20;64.50;;;;;;5032445;28;20079;-81
2022/05/03 08:43:46;;;;;;;4.20;2.28;;;13.50;64.30;;;;;;5032561;28;20426;-80
2022/05/03 08:46:12;;;;;;;2.83;1.48;;;13.60;64.20;;;;;;5031994;28;20233;-79
2022/05/03 08:48:41;;;;;;;4.85;2.30;;;13.60;64.10;;;;;;5032194;28;20053;-78
2022/05/03 08:51:10;;;;;;;6.35;2.25;;;13.70;64.10;;;;;;5032195;28;20096;-79
2022/05/03 08:53:37;;;;;;;4.85;1.83;;;13.80;64.30;;;;;;5032720;28;20038;-79
2022/05/03 08:56:03;;;;;;;3.92;1.85;;;13.90;64.30;;;;;;5032124;28;20461;-80
2022/05/03 08:58:30;;;;;;;8.10;2.70;;;14.00;64.20;;;;;;5016479;28;20037;-80
2022/05/03 09:00:55;;;;;;;5.00;2.15;;;14.00;64.10;;;;;;5053302;28;20033;-79
2022/05/03 09:03:21;;;;;;;4.03;2.15;;;14.10;64.00;;;;;;5053319;28;20528;-79
2022/05/03 09:05:47;;;;;;;4.90;1.92;;;14.20;63.90;;;;;;5035345;28;20040;-80
2022/05/03 09:08:21;;;;;;;4.88;2.08;;;14.30;64.00;;;;;;5035908;28;20171;-81
2022/05/03 09:10:47;;;;;;;4.90;2.00;;;14.40;63.80;;;;;;5053116;28;20017;-80
2022/05/03 09:13:17;;;;;;;5.22;2.22;;;14.50;63.80;;;;;;5053121;28;20036;-80
2022/05/03 09:15:43;;;;;;;5.25;2.33;;;14.50;63.60;;;;;;5053017;28;20037;-80
2022/05/03 09:18:19;;;;;;;4.25;2.15;;;14.60;63.60;;;;;;5052971;28;20439;-80
2022/05/03 09:23:47;;;;;;;5.40;2.30;;;14.70;63.60;;;;;;5057439;28;20032;-80
2022/05/03 09:26:28;;;;;;;7.22;2.58;;;14.80;63.50;;;;;;5057003;28;20033;-80
2022/05/03 09:29:07;;;;;;;3.42;1.83;;;14.90;63.60;;;;;;5039102;28;20393;-81
2022/05/03 09:31:41;;;;;;;4.70;2.10;;;15.00;63.40;;;;;;5056992;28;20512;-79
2022/05/03 09:34:19;;;;;;;4.88;1.95;;;15.10;63.30;;;;;;5057518;28;20024;-82
2022/05/03 09:36:47;;;;;;;5.30;2.47;;;15.20;63.10;;;;;;5039402;28;20029;-77
2022/05/03 09:39:54;;;;;;;3.30;1.92;;;15.30;63.00;;;;;;5056693;28;20053;-77
2022/05/03 09:42:20;;;;;;;9.98;3.80;;;15.50;62.80;;;;;;5056499;28;20404;-72
2022/05/03 09:44:51;;;;;;;5.13;2.50;;;15.70;62.70;;;;;;5056700;28;20029;-76
2022/05/03 09:47:19;;;;;;;5.97;2.38;;;15.90;62.70;;;;;;5056566;28;20021;-77
2022/05/03 09:49:44;;;;;;;5.90;2.35;;;16.00;62.70;;;;;;5056567;28;20033;-77
2022/05/03 09:52:33;;;;;;;8.65;2.15;;;16.20;62.70;;;;;;5056417;28;20108;-78
2022/05/03 09:55:09;;;;;;;6.40;2.85;;;16.30;62.40;;;;;;5056405;28;20025;-78
2022/05/03 09:57:40;;;;;;;5.50;2.85;;;16.50;62.30;;;;;;5056451;28;20500;-77
2022/05/03 10:00:09;;;;;;;6.15;2.60;;;16.60;62.10;;;;;;5038523;28;20084;-77
2022/05/03 10:02:40;;;;;;;4.70;2.10;;;16.70;62.20;;;;;;5022234;28;20026;-78
2022/05/03 10:05:06;;;;;;;3.65;2.25;;;16.90;61.60;;;;;;5056417;28;20489;-77
2022/05/03 10:07:34;;;;;;;8.18;2.47;;;17.10;61.30;;;;;;5022263;28;20057;-76
2022/05/03 10:10:05;;;;;;;5.65;2.80;;;17.10;60.90;;;;;;5038326;28;20481;-76
2022/05/03 10:12:31;;;;;;;5.10;2.40;;;17.30;60.80;;;;;;5056389;28;20033;-76
2022/05/03 10:14:57;;;;;;;4.60;2.22;;;17.40;60.70;;;;;;5056125;28;20028;-76
2022/05/03 10:20:39;;;;;;;4.00;2.38;;;17.40;60.50;;;;;;5055953;28;20566;-77
2022/05/03 10:23:20;;;;;;;4.57;2.50;;;17.50;60.30;;;;;;5037951;28;20071;-78
2022/05/03 10:25:46;;;;;;;4.90;2.45;;;17.60;60.20;;;;;;5055814;28;20025;-77
2022/05/03 10:28:11;;;;;;;5.65;2.53;;;17.60;60.10;;;;;;5055876;28;20549;-77
2022/05/03 10:30:40;;;;;;;6.43;2.55;;;17.70;60.10;;;;;;5055676;28;20509;-76
2022/05/03 10:33:21;;;;;;;5.55;3.10;;;17.70;60.10;;;;;;5021533;28;20120;-78
2022/05/03 10:35:47;;;;;;;4.95;2.78;;;17.80;59.80;;;;;;5055651;28;20025;-77
2022/05/03 10:38:13;;;;;;;7.22;2.72;;;17.90;59.70;;;;;;5021104;28;20041;-78
2022/05/03 10:40:43;;;;;;;7.70;4.03;;;18.00;59.60;;;;;;5055427;28;20048;-78
2022/05/03 10:43:27;;;;;;;7.25;3.38;;;18.00;59.30;;;;;;5055331;28;20025;-79
2022/05/03 10:45:54;;;;;;;;;;;18.10;59.30;;;;;;5055877;28;20108;-80
2022/05/03 10:48:34;;;;;;;6.47;2.80;;;18.20;59.20;;;;;;5037657;28;19904;-79
2022/05/03 10:51:07;;;;;;;4.70;2.53;;;18.20;59.10;;;;;;5022835;28;20440;-78
2022/05/03 10:53:35;;;;;;;7.85;3.55;;;18.30;58.90;;;;;;5055362;28;20029;-78
2022/05/03 10:56:18;;;;;;;5.50;2.88;;;18.30;58.80;;;;;;5037731;28;20378;-78
2022/05/03 10:59:10;;;;;;;4.78;3.22;;;18.30;58.60;;;;;;5037109;28;20095;-77
2022/05/03 11:01:54;;;;;;;6.10;2.72;;;18.50;58.70;;;;;;5055540;28;20025;-76
2022/05/03 11:04:20;;;;;;;;;;;18.70;58.50;;;;;;5038071;28;20032;-76
2022/05/03 11:06:49;;;;;;;3.58;2.08;;;19.00;58.30;;;;;;5037729;28;19904;-77
2022/05/03 11:09:25;;;;;;;5.75;3.00;;;19.20;58.10;;;;;;5054914;28;20477;-77
2022/05/03 11:11:52;;;;;;;6.25;3.28;;;19.40;57.30;;;;;;5062839;28;20033;-78
2022/05/03 11:14:44;;;;;;;6.53;3.08;;;19.40;56.90;;;;;;5021280;28;20374;-76
2022/05/03 11:17:11;;;;;;;5.75;3.38;;;19.50;56.70;;;;;;5036609;28;20465;-77
2022/05/03 11:19:49;;;;;;;7.72;3.50;;;19.50;56.70;;;;;;5054700;28;20029;-78
2022/05/03 11:22:18;;;;;;;10.02;3.03;;;19.40;56.40;;;;;;5057871;28;20021;-79
2022/05/03 11:24:46;;;;;;;5.75;2.83;;;19.40;56.30;;;;;;5036843;28;20477;-80
2022/05/03 11:27:13;;;;;;;4.18;2.25;;;19.40;56.40;;;;;;5036538;28;20017;-81
2022/05/03 11:29:42;;;;;;;4.90;2.40;;;19.40;56.20;;;;;;5036750;28;20128;-80
2022/05/03 11:32:09;;;;;;;3.85;1.88;;;19.50;56.10;;;;;;5054627;28;20104;-80
2022/05/03 11:34:36;;;;;;;4.43;1.52;;;19.70;56.00;;;;;;5054631;28;20025;-81
2022/05/03 11:37:03;;;;;;;3.30;1.52;;;20.00;55.90;;;;;;5036702;28;20028;-80
2022/05/03 11:39:29;;;;;;;3.47;2.10;;;20.30;55.50;;;;;;5036546;28;20436;-81
2022/05/03 11:41:55;;;;;;;3.90;2.45;;;20.80;55.20;;;;;;5036481;28;20025;-80
2022/05/03 11:44:21;;;;;;;5.35;2.45;;;21.10;54.60;;;;;;5019414;28;20021;-81
2022/05/03 11:46:48;;;;;;;3.80;1.95;;;21.40;54.10;;;;;;5054088;28;20469;-81
2022/05/03 11:49:15;;;;;;;4.03;2.03;;;21.60;53.50;;;;;;5054063;28;20025;-81
2022/05/03 11:57:30;;;;;;;3.63;1.77;;;21.60;52.50;;;;;;5054459;28;20087;-81
2022/05/03 11:59:58;;;;;;;3.50;1.63;;;21.50;52.10;;;;;;5053834;28;20053;-82
2022/05/03 12:02:31;;;;;;;2.97;1.73;;;21.50;51.90;;;;;;5052861;28;20111;-81
2022/05/03 12:05:07;;;;;;;3.15;1.73;;;21.40;51.80;;;;;;5036251;28;20013;-80
2022/05/03 12:07:42;;;;;;;3.80;2.20;;;21.40;51.70;;;;;;5036053;28;20540;-81
2022/05/03 12:10:14;;;;;;;3.45;2.10;;;21.40;51.50;;;;;;5054047;28;20381;-81
2022/05/03 12:12:43;;;;;;;3.78;2.05;;;21.30;51.40;;;;;;5053953;28;20033;-80
2022/05/03 12:15:15;;;;;;;4.40;1.98;;;21.20;51.40;;;;;;5004095;28;20029;-81
2022/05/03 12:18:29;;;;;;;4.88;2.20;;;21.20;51.40;;;;;;5053927;28;20025;-80
2022/05/03 12:20:59;;;;;;;5.38;2.13;;;21.20;51.40;;;;;;5047319;28;20033;-82
2022/05/03 12:23:32;;;;;;;4.32;2.65;;;21.20;51.50;;;;;;5035865;28;20031;-80
2022/05/03 12:26:02;;;;;;;4.95;2.80;;;21.20;51.50;;;;;;5035814;28;20024;-80
2022/05/03 12:28:38;;;;;;;5.18;3.10;;;21.20;51.50;;;;;;5053734;28;20021;-81
2022/05/03 12:31:08;;;;;;;5.07;2.60;;;21.20;51.40;;;;;;5036156;28;20029;-80
2022/05/03 12:33:46;;;;;;;4.95;2.50;;;21.20;51.50;;;;;;5035722;28;20024;-80
2022/05/03 12:36:33;;;;;;;5.32;2.35;;;21.20;51.40;;;;;;5053505;28;20082;-80
2022/05/03 12:39:14;;;;;;;6.50;3.97;;;21.20;51.40;;;;;;5053380;28;20075;-82
2022/05/03 12:41:42;;;;;;;7.97;4.25;;;21.10;51.30;;;;;;5053468;28;20029;-81
2022/05/03 12:44:10;;;;;;;4.53;2.78;;;21.10;51.20;;;;;;5035855;28;20037;-81
2022/05/03 12:46:36;;;;;;;5.55;3.13;;;21.00;51.20;;;;;;5035623;28;20029;-81
2022/05/03 12:49:04;;;;;;;8.00;4.28;;;21.00;51.30;;;;;;5002955;28;20029;-82
2022/05/03 12:51:31;;;;;;;6.97;3.92;;;20.90;51.40;;;;;;5035700;28;20039;-82
2022/05/03 12:53:56;;;;;;;6.85;4.32;;;20.80;51.50;;;;;;5035579;28;20104;-81
2022/05/03 12:59:06;;;;;;;8.85;5.07;;;20.60;52.00;;;;;;5053166;28;20413;-81
2022/05/03 13:01:33;;;;;;;8.05;4.78;;;20.50;52.20;;;;;;5002617;28;20025;-82
2022/05/03 13:03:58;;;;;;;12.13;4.70;;;20.40;52.50;;;;;;5053113;28;20377;-81
2022/05/03 13:06:24;;;;;;;9.88;4.43;;;20.30;52.60;;;;;;5018905;28;20082;-81
2022/05/03 13:08:50;;;;;;;9.82;5.10;;;20.20;52.70;;;;;;5018806;28;20074;-81
2022/05/03 13:11:16;;;;;;;12.15;5.65;;;20.10;52.90;;;;;;5019049;28;20107;-80
2022/05/03 13:13:42;;;;;;;14.15;8.52;;;20.00;53.10;;;;;;5036280;28;20146;-82
2022/05/03 13:16:08;;;;;;;16.67;10.18;;;19.90;53.60;;;;;;5036015;28;20067;-80
2022/05/03 13:18:34;;;;;;;20.35;11.65;;;19.80;54.20;;;;;;5035336;28;20052;-81
2022/05/03 13:21:00;;;;;;;18.75;11.60;;;19.70;54.80;;;;;;5051889;28;20470;-81
2022/05/03 13:23:26;;;;;;;17.75;10.02;;;19.70;55.30;;;;;;5035255;28;20037;-81
2022/05/03 13:25:53;;;;;;;18.17;10.25;;;19.60;55.60;;;;;;5051949;28;20030;-81
2022/05/03 13:28:19;;;;;;;24.38;12.80;;;19.50;55.90;;;;;;5053153;28;20025;-81
2022/05/03 13:30:44;;;;;;;22.73;13.45;;;19.40;56.10;;;;;;5053066;28;20032;-82
2022/05/03 13:33:10;;;;;;;21.15;12.88;;;19.30;56.40;;;;;;5035278;28;20117;-80
2022/05/03 13:41:06;;;;;;;21.67;13.20;;;19.10;57.40;;;;;;5053288;28;20035;-81
2022/05/03 13:43:32;;;;;;;25.92;14.15;;;19.00;57.60;;;;;;5051537;28;20420;-81
2022/05/03 13:45:58;;;;;;;27.58;14.18;;;19.00;58.00;;;;;;5053289;28;20025;-81
2022/05/03 13:48:25;;;;;;;21.27;13.40;;;18.80;58.20;;;;;;5035030;28;20021;-80
2022/05/03 13:50:50;;;;;;;22.33;12.68;;;18.80;58.50;;;;;;5034804;28;20431;-81